Terminal Aerodrome Forecast
Issued by NWS

Home | Current Version | Previous Version | Text Only | Print | Product List | Glossary On
Versions: 1 2 3 4 5 6 7 8 9 10 11 12 13 14 15 16 17 18 19
000
FTUS45 KFGZ 180100 AAB
TAFGCN
TAF AMD
KGCN 180143Z 1802/1824 22005KT P6SM FEW003 BKN020
      TEMPO 1802/1803 2SM -SHSN BR OVC003
     FM180300 VRB03KT 1SM BR OVC008 PROB30 1812/1815 1SM -SHSN BR
     FM181600 VRB05KT P6SM SCT025 BKN035=

USA.gov is the U.S. government's official web portal to all federal, state and local government web resources and services.